Santos Dumont Airport

SBRJ · Rio de Janeiro, 巴西

罗盘
风向 的 风向 310° Santos Dumont Airport 2R/20L
风: 7 kt, 3 beaufort

2 kt

7 kt
改变
0 1.000 2.000 3.000 4.000 5.000
SCT 1.500 ft
BKN 5.000 ft
METAR SBSC 061000Z 31007KT 9999 SCT015 BKN050 25/20 Q1013

METAR Santos Dumont Airport - SBRJ/SDU

Santos Dumont Airport是,巴西中的中型机场。 该机场有2条跑道: 2R/20L 和 2L/20R. 该领域的国际民航组织标志是SBRJ 它的国际航空运输协会代码是SDU.

这份报告是针对2022年12月6日 07:00, 当地时间在Santa Cruz Air Force Base进行的。

机场观察

风向为310°,速度为7 kt。

可见度为10 km 或者更多。

有疏云,零星散落的云朵在1.500 ft的高度 和 碎云在5.000 ft的高度。 破损或更高的上限为5.000 ft。

温度和风寒是25 °C。 露点为20 °C,相对湿度为74%。 海平面上的气压为1013 hPa (QNH)。

白天

今天,太阳从04:59升起,在18:28降落。 这适用于Santos Dumont Airport,世界夏令时可能有所不同。 当地时间与世界标准时间之间的时差为-3 小时。 当前,没有夏令时有效。

公司介绍

我们没有关于这个机场的公司信息。

体会

到Vliegles.nl去找飞行课程,跳伞和其他飞行体验。 浏览页面,了解Santos Dumont Airport附近所有可用的活动。 你也可以使用搜索功能来寻找你所在地附近的特定飞行课程、跳伞或其他飞行体验。

跑道

Id 标题 侧风 逆风 侧风 %
2R/20L 020°-200° 7 kt 2 kt 94 %
2L/20R 020°-200° 7 kt 2 kt 94 %

逆风成分最大的方向会被突出显示,并用于横风计算。 这并不一定意味着这个方向在使用。

乌云

1.500 ft SCT 疏云,零星散落的云朵
5.000 ft BKN 碎云

温度 & 天气

温度 25 °C
露点 20 °C
相对湿度 74%
Kp-index 0 (0-9)

白天

日出
05:01
中午
11:45
日落
18:30 (11:13)

小工具

你想在你的网站上有一个关于Santos Dumont Airport的当前航空天气(METAR)的小部件吗?

显示HTML代码

我们和第三方通过cookies跟踪您在我们网站上的互联网行为。如果你继续,我们认为你同意我们的饼干政策